createdAt,value
2019-01-04T00:02:07.295Z,33.42
2019-01-04T00:04:46.942Z,25.52
2019-01-04T00:07:26.992Z,28.80
2019-01-04T00:10:07.082Z,32.30
2019-01-04T00:12:47.272Z,27.42
2019-01-04T00:15:27.579Z,32.20
2019-01-04T00:18:07.709Z,28.60
2019-01-04T00:20:47.517Z,29.80
2019-01-04T00:23:27.626Z,21.62
2019-01-04T00:26:07.799Z,21.97
2019-01-04T00:28:47.818Z,24.37
2019-01-04T00:31:27.695Z,18.82
2019-01-04T00:34:08.078Z,28.05
2019-01-04T00:36:47.760Z,21.52
2019-01-04T00:39:28.251Z,26.15
2019-01-04T00:42:08.188Z,17.80
2019-01-04T00:44:47.962Z,23.70
2019-01-04T00:47:28.252Z,24.30
2019-01-04T00:50:08.316Z,23.87
2019-01-04T00:52:48.380Z,21.25
2019-01-04T00:55:28.436Z,24.95
2019-01-04T00:58:08.622Z,24.50
2019-01-04T01:00:49.070Z,20.88
2019-01-04T01:03:28.564Z,26.30
2019-01-04T01:06:09.070Z,30.25
2019-01-04T01:08:49.506Z,28.60
2019-01-04T01:11:29.502Z,22.82
2019-01-04T01:14:09.316Z,23.75
2019-01-04T01:16:49.311Z,31.48
2019-01-04T01:19:29.445Z,24.23
2019-01-04T01:22:09.832Z,30.57
2019-01-04T01:24:49.605Z,24.72
2019-01-04T01:27:29.470Z,20.35
2019-01-04T01:30:09.790Z,22.95
2019-01-04T01:32:49.459Z,21.80
2019-01-04T01:35:29.533Z,26.27
2019-01-04T01:38:09.854Z,25.65
2019-01-04T01:40:49.685Z,24.20
2019-01-04T01:43:29.690Z,25.65
2019-01-04T01:46:09.786Z,18.17
2019-01-04T01:48:50.198Z,31.75
2019-01-04T01:51:30.439Z,27.37
2019-01-04T01:54:10.353Z,25.32
2019-01-04T01:56:51.696Z,20.37
2019-01-04T01:59:31.614Z,26.15
2019-01-04T02:02:11.576Z,24.30
2019-01-04T02:04:51.868Z,21.80
2019-01-04T02:07:31.858Z,24.67
2019-01-04T02:10:11.903Z,30.10
2019-01-04T02:12:52.086Z,23.38
2019-01-04T02:15:32.554Z,33.55
2019-01-04T02:18:16.208Z,24.80
2019-01-04T02:20:56.710Z,20.08
2019-01-04T02:23:36.413Z,24.32
2019-01-04T02:26:16.808Z,19.10
2019-01-04T02:28:56.857Z,27.42
2019-01-04T02:31:36.562Z,29.63
2019-01-04T02:34:16.750Z,28.65
2019-01-04T02:36:56.757Z,23.52
2019-01-04T02:39:36.889Z,25.05
2019-01-04T02:42:18.491Z,25.65
2019-01-04T02:44:58.491Z,21.17
2019-01-04T02:47:38.952Z,29.82
2019-01-04T02:50:18.711Z,23.73
2019-01-04T02:52:58.735Z,21.62
2019-01-04T02:55:39.226Z,19.12
2019-01-04T02:58:20.178Z,21.23
2019-01-04T03:01:00.091Z,22.70
2019-01-04T03:03:39.898Z,29.35
2019-01-04T03:06:19.990Z,21.50
2019-01-04T03:08:59.963Z,27.07
2019-01-04T03:11:39.985Z,26.65
2019-01-04T03:14:19.645Z,23.12
2019-01-04T03:17:00.066Z,22.85
2019-01-04T03:19:40.029Z,31.27
2019-01-04T03:22:20.258Z,21.45
2019-01-04T03:25:00.166Z,20.23
2019-01-04T03:27:40.316Z,25.70
2019-01-04T03:30:20.675Z,16.02
2019-01-04T03:33:00.823Z,22.15
2019-01-04T03:35:40.811Z,22.05
2019-01-04T03:38:20.910Z,15.55
2019-01-04T03:41:00.995Z,17.40
2019-01-04T03:43:41.017Z,17.20
2019-01-04T03:46:20.860Z,16.35
2019-01-04T03:49:01.086Z,22.95
2019-01-04T03:51:41.218Z,17.17
2019-01-04T03:54:21.264Z,12.50
2019-01-04T03:57:01.474Z,14.30
2019-01-04T03:59:41.527Z,20.70
2019-01-04T04:02:21.459Z,15.53
2019-01-04T04:05:01.912Z,15.05
2019-01-04T04:07:41.816Z,14.80
2019-01-04T04:10:21.980Z,14.38
2019-01-04T04:13:02.294Z,20.95
2019-01-04T04:15:42.336Z,12.15
2019-01-04T04:18:22.387Z,25.60
2019-01-04T04:21:02.426Z,23.27
2019-01-04T04:23:42.406Z,15.28
2019-01-04T04:26:23.046Z,17.70
2019-01-04T04:29:02.974Z,15.80
2019-01-04T04:31:42.946Z,16.67
2019-01-04T04:34:23.208Z,16.20
2019-01-04T04:37:03.336Z,22.37
2019-01-04T04:39:43.166Z,17.40
2019-01-04T04:42:23.615Z,19.12
2019-01-04T04:45:03.486Z,18.07
2019-01-04T04:47:43.507Z,16.50
2019-01-04T04:50:23.870Z,16.97
2019-01-04T04:53:04.928Z,21.02
2019-01-04T04:55:45.120Z,15.53
2019-01-04T04:58:25.077Z,19.40
2019-01-04T05:01:05.162Z,14.35
2019-01-04T05:03:45.373Z,24.55
2019-01-04T05:06:25.491Z,20.82
2019-01-04T05:09:05.639Z,17.17
2019-01-04T05:11:46.012Z,17.95
2019-01-04T05:14:25.824Z,15.18
2019-01-04T05:17:06.185Z,14.68
2019-01-04T05:19:46.282Z,23.10
2019-01-04T05:22:27.228Z,15.63
2019-01-04T05:25:07.468Z,17.45
2019-01-04T05:27:47.381Z,19.52
2019-01-04T05:30:27.734Z,18.23
2019-01-04T05:33:07.436Z,16.80
2019-01-04T05:35:47.376Z,21.97
2019-01-04T05:38:27.416Z,23.15
2019-01-04T05:41:07.483Z,21.45
2019-01-04T05:43:47.711Z,18.02
2019-01-04T05:46:27.370Z,28.70
2019-01-04T05:49:07.196Z,30.10
2019-01-04T05:51:47.225Z,31.33
2019-01-04T05:54:28.286Z,38.45
2019-01-04T05:57:08.374Z,65.22
2019-01-04T05:59:48.500Z,56.35
2019-01-04T06:02:28.422Z,52.48
2019-01-04T06:05:08.520Z,43.83
2019-01-04T06:07:48.645Z,30.57
2019-01-04T06:10:28.715Z,25.72
2019-01-04T06:13:08.804Z,24.47
2019-01-04T06:15:48.949Z,26.55
2019-01-04T06:18:28.812Z,24.00
2019-01-04T06:21:09.259Z,22.30
2019-01-04T06:23:49.429Z,23.57
2019-01-04T06:26:29.407Z,25.50
2019-01-04T06:29:09.613Z,23.83
2019-01-04T06:31:49.898Z,24.23
2019-01-04T06:34:30.098Z,25.08
2019-01-04T06:37:10.112Z,24.30
2019-01-04T06:39:50.208Z,19.85
2019-01-04T06:42:30.212Z,22.07
2019-01-04T06:45:10.292Z,23.87
2019-01-04T06:47:53.297Z,34.45
2019-01-04T06:50:33.541Z,43.65
2019-01-04T06:53:13.612Z,44.75
2019-01-04T06:55:54.706Z,64.30
2019-01-04T06:58:35.353Z,58.92
2019-01-04T07:01:15.788Z,45.75
2019-01-04T07:03:55.872Z,42.75
2019-01-04T07:06:36.089Z,35.35
2019-01-04T07:09:16.062Z,37.75
2019-01-04T07:11:56.469Z,35.03
2019-01-04T07:14:34.640Z,33.53
2019-01-04T07:17:21.611Z,35.13
2019-01-04T07:20:01.588Z,42.27
2019-01-04T07:22:42.014Z,32.53
2019-01-04T07:25:22.236Z,35.88
2019-01-04T07:28:02.107Z,37.55
2019-01-04T07:30:41.968Z,31.70
2019-01-04T07:33:22.090Z,31.85
2019-01-04T07:36:02.328Z,30.00
2019-01-04T07:38:42.481Z,35.48
2019-01-04T07:41:22.520Z,38.40
2019-01-04T07:44:02.544Z,38.38
2019-01-04T07:46:42.506Z,35.63
2019-01-04T07:49:22.865Z,29.27
2019-01-04T07:52:03.110Z,37.15
2019-01-04T07:54:42.968Z,30.68
2019-01-04T07:57:23.356Z,33.80
2019-01-04T08:00:03.440Z,35.00
2019-01-04T08:02:43.272Z,33.73
2019-01-04T08:05:23.340Z,49.05
2019-01-04T08:08:03.422Z,42.50
2019-01-04T08:10:43.720Z,43.95
2019-01-04T08:13:23.605Z,59.90
2019-01-04T08:16:03.868Z,60.75
2019-01-04T08:18:43.498Z,45.40
2019-01-04T08:21:23.662Z,54.33
2019-01-04T08:24:04.042Z,58.13
2019-01-04T08:26:44.216Z,50.23
2019-01-04T08:29:24.254Z,43.83
2019-01-04T08:32:04.596Z,60.05
2019-01-04T08:34:44.627Z,74.45
2019-01-04T08:37:24.741Z,67.60
2019-01-04T08:40:04.839Z,73.45
2019-01-04T08:42:45.364Z,56.35
2019-01-04T08:45:25.190Z,52.55
2019-01-04T08:48:05.472Z,32.05
2019-01-04T08:50:46.025Z,29.25
2019-01-04T08:56:06.783Z,33.15
2019-01-04T08:58:47.282Z,35.65
2019-01-04T09:01:27.281Z,29.80
2019-01-04T09:04:07.044Z,30.40
2019-01-04T09:06:48.175Z,31.10
2019-01-04T09:09:28.134Z,37.30
2019-01-04T09:11:56.005Z,33.05
2019-01-04T09:14:43.095Z,35.83
2019-01-04T09:17:23.692Z,37.00
2019-01-04T09:20:04.072Z,35.38
2019-01-04T09:22:43.962Z,39.98
2019-01-04T09:25:23.919Z,44.48
2019-01-04T09:28:03.972Z,39.65
2019-01-04T09:30:43.991Z,44.30
2019-01-04T09:33:24.064Z,43.70
2019-01-04T09:36:04.239Z,37.03
2019-01-04T09:38:45.551Z,42.85
2019-01-04T09:41:25.295Z,40.28
2019-01-04T09:44:05.534Z,37.60
2019-01-04T09:46:45.732Z,37.85
2019-01-04T09:49:26.551Z,145.75
2019-01-04T09:52:06.942Z,53.23
2019-01-04T09:54:46.788Z,35.30
2019-01-04T09:57:26.696Z,37.98
2019-01-04T10:00:07.074Z,27.17
2019-01-04T10:02:47.603Z,40.55
2019-01-04T10:05:27.502Z,40.17
2019-01-04T10:08:07.578Z,48.75
2019-01-04T10:10:47.683Z,48.23
2019-01-04T10:13:27.634Z,38.50
2019-01-04T10:16:07.930Z,31.80
2019-01-04T10:18:47.715Z,38.42
2019-01-04T10:21:27.614Z,47.23
2019-01-04T10:24:08.080Z,38.73
2019-01-04T10:26:47.695Z,39.10
2019-01-04T10:29:27.898Z,37.55
2019-01-04T10:32:08.307Z,38.58
2019-01-04T10:34:48.072Z,35.35
2019-01-04T10:37:28.433Z,35.98
2019-01-04T10:40:11.120Z,30.75
2019-01-04T10:42:51.041Z,46.60
2019-01-04T10:45:31.227Z,46.35
2019-01-04T10:48:11.388Z,35.25
2019-01-04T10:50:51.380Z,35.35
2019-01-04T10:53:31.812Z,37.85
2019-01-04T10:56:11.568Z,36.77
2019-01-04T10:58:52.772Z,45.20
2019-01-04T11:01:33.133Z,34.13
2019-01-04T11:04:13.102Z,41.55
2019-01-04T11:06:53.060Z,41.98
2019-01-04T11:09:33.184Z,42.50
2019-01-04T11:12:13.314Z,37.33
2019-01-04T11:14:53.638Z,39.42
2019-01-04T11:17:33.700Z,32.15
2019-01-04T11:20:13.800Z,34.67
2019-01-04T11:22:54.189Z,47.03
2019-01-04T11:25:33.992Z,48.65
2019-01-04T11:28:13.882Z,44.10
2019-01-04T11:30:54.172Z,47.43
2019-01-04T11:33:34.143Z,45.52
2019-01-04T11:36:14.151Z,50.45
2019-01-04T11:38:54.267Z,48.13
2019-01-04T11:41:34.271Z,45.95
2019-01-04T11:44:14.666Z,52.80
2019-01-04T11:46:54.777Z,51.37
2019-01-04T11:49:34.296Z,57.53
2019-01-04T11:52:14.619Z,61.50
2019-01-04T11:54:54.746Z,45.30
2019-01-04T11:57:34.880Z,44.33
2019-01-04T12:00:14.928Z,51.98
2019-01-04T12:02:55.997Z,58.40
2019-01-04T12:05:35.962Z,54.63
2019-01-04T12:08:15.918Z,55.17
2019-01-04T12:10:55.980Z,57.62
2019-01-04T12:13:36.304Z,62.45
2019-01-04T12:16:16.796Z,40.43
2019-01-04T12:18:56.682Z,34.92
2019-01-04T12:21:36.992Z,30.57
2019-01-04T12:24:17.392Z,38.30
2019-01-04T12:26:57.423Z,20.50
2019-01-04T12:29:37.866Z,33.92
2019-01-04T12:32:18.051Z,30.35
2019-01-04T12:34:58.325Z,25.52
2019-01-04T12:37:37.965Z,29.75
2019-01-04T12:40:18.462Z,23.67
2019-01-04T12:42:58.055Z,28.42
2019-01-04T12:45:38.035Z,28.77
2019-01-04T12:48:17.872Z,28.75
2019-01-04T12:50:57.980Z,29.65
2019-01-04T12:53:39.178Z,22.20
2019-01-04T12:56:20.350Z,25.48
2019-01-04T12:59:01.435Z,29.52
2019-01-04T13:01:41.634Z,31.23
2019-01-04T13:04:21.824Z,31.65
2019-01-04T13:07:02.104Z,26.75
2019-01-04T13:09:42.523Z,26.17
2019-01-04T13:12:22.704Z,36.45
2019-01-04T13:15:02.579Z,34.63
2019-01-04T13:17:42.656Z,29.50
2019-01-04T13:20:22.820Z,36.13
2019-01-04T13:23:03.057Z,40.12
2019-01-04T13:25:42.953Z,34.98
2019-01-04T13:28:22.958Z,35.05
2019-01-04T13:31:03.078Z,35.78
2019-01-04T13:33:43.005Z,34.33
2019-01-04T13:36:23.165Z,42.73
2019-01-04T13:39:06.140Z,36.05
2019-01-04T13:41:48.500Z,40.88
2019-01-04T13:44:28.355Z,39.60
2019-01-04T13:47:08.484Z,40.38
2019-01-04T13:49:48.919Z,39.03
2019-01-04T13:52:28.944Z,46.55
2019-01-04T13:55:08.775Z,40.50
2019-01-04T13:57:49.293Z,44.65
2019-01-04T14:00:29.264Z,42.93
2019-01-04T14:03:09.204Z,36.30
2019-01-04T14:05:49.820Z,35.50
2019-01-04T14:08:29.626Z,38.92
2019-01-04T14:11:09.796Z,41.05
2019-01-04T14:13:49.804Z,50.05
2019-01-04T14:16:29.869Z,39.13
2019-01-04T14:19:10.232Z,47.60
2019-01-04T14:21:50.083Z,50.65
2019-01-04T14:24:29.929Z,47.45
2019-01-04T14:27:10.336Z,45.40
2019-01-04T14:29:50.214Z,42.10
2019-01-04T14:32:30.265Z,45.55
2019-01-04T14:35:10.309Z,54.38
2019-01-04T14:37:50.219Z,58.58
2019-01-04T14:46:28.058Z,61.77
2019-01-04T14:49:08.232Z,66.40
2019-01-04T14:51:48.194Z,62.40
2019-01-04T14:54:28.455Z,59.80
2019-01-04T14:57:10.617Z,77.80
2019-01-04T14:59:50.286Z,56.98
2019-01-04T15:02:30.142Z,75.37
2019-01-04T15:04:57.661Z,51.30
2019-01-04T15:07:44.491Z,57.30
2019-01-04T15:10:24.708Z,52.03
2019-01-04T15:13:04.823Z,54.00
2019-01-04T15:15:45.117Z,54.23
2019-01-04T15:18:25.306Z,55.03
2019-01-04T15:21:05.552Z,48.60
2019-01-04T15:23:45.208Z,44.73
2019-01-04T15:26:25.576Z,49.10
2019-01-04T15:29:05.405Z,47.25
2019-01-04T15:31:45.918Z,49.93
2019-01-04T15:34:26.447Z,51.25
2019-01-04T15:37:07.047Z,48.85
2019-01-04T15:39:47.169Z,45.15
2019-01-04T15:42:27.126Z,52.58
2019-01-04T15:45:07.017Z,43.92
2019-01-04T15:47:47.274Z,45.38
2019-01-04T15:50:27.062Z,59.00
2019-01-04T15:53:07.194Z,45.23
2019-01-04T15:55:47.156Z,53.00
2019-01-04T15:58:27.553Z,47.05
2019-01-04T16:01:07.676Z,49.90
2019-01-04T16:03:47.663Z,52.05
2019-01-04T16:06:27.822Z,42.50
2019-01-04T16:09:08.039Z,45.15
2019-01-04T16:11:48.900Z,52.25
2019-01-04T16:14:28.841Z,42.67
2019-01-04T16:17:12.115Z,43.90
2019-01-04T16:19:51.073Z,47.43
2019-01-04T16:22:31.339Z,47.20
2019-01-04T16:28:10.357Z,53.80
2019-01-04T16:30:50.502Z,45.92
2019-01-04T16:33:31.846Z,52.48
2019-01-04T16:36:12.042Z,49.48
2019-01-04T16:38:52.514Z,47.40
2019-01-04T16:41:32.196Z,48.90
2019-01-04T16:44:12.278Z,43.68
2019-01-04T16:46:52.330Z,48.28
2019-01-04T16:49:36.521Z,45.33
2019-01-04T16:52:17.259Z,44.53
2019-01-04T16:54:57.073Z,52.88
2019-01-04T16:57:37.099Z,47.23
2019-01-04T17:00:18.441Z,48.68
2019-01-04T17:03:00.166Z,48.13
2019-01-04T17:05:40.455Z,44.05
2019-01-04T17:08:20.594Z,46.00
2019-01-04T17:11:00.809Z,38.58
2019-01-04T17:13:40.955Z,45.45
2019-01-04T17:16:21.241Z,41.77
2019-01-04T17:19:01.127Z,44.35
2019-01-04T17:21:41.469Z,45.95
2019-01-04T17:24:21.708Z,47.25
2019-01-04T17:27:01.850Z,50.17
2019-01-04T17:29:41.828Z,47.58
2019-01-04T17:32:21.929Z,51.13
2019-01-04T17:35:02.106Z,48.33
2019-01-04T17:37:42.060Z,55.52
2019-01-04T17:40:22.272Z,49.03
2019-01-04T17:43:02.522Z,46.83
2019-01-04T17:45:42.746Z,46.15
2019-01-04T17:48:22.620Z,51.98
2019-01-04T17:51:02.666Z,59.23
2019-01-04T17:53:42.779Z,57.35
2019-01-04T17:56:22.793Z,58.13
2019-01-04T17:59:03.173Z,56.60
2019-01-04T18:01:43.288Z,58.58
2019-01-04T18:04:23.607Z,64.20
2019-01-04T18:07:03.682Z,68.90
2019-01-04T18:09:43.563Z,72.17
2019-01-04T18:12:24.428Z,64.47
2019-01-04T18:15:04.862Z,69.53
2019-01-04T18:17:45.532Z,63.10
2019-01-04T18:20:26.033Z,69.12
2019-01-04T18:23:06.056Z,69.47
2019-01-04T18:25:47.161Z,69.72
2019-01-04T18:28:27.170Z,55.08
2019-01-04T18:31:07.262Z,68.83
2019-01-04T18:33:47.522Z,74.10
2019-01-04T18:36:27.867Z,62.55
2019-01-04T18:39:08.008Z,71.60
2019-01-04T18:41:48.103Z,72.35
2019-01-04T18:44:28.571Z,57.73
2019-01-04T18:47:08.516Z,66.57
2019-01-04T18:49:49.043Z,59.40
2019-01-04T18:52:28.948Z,63.20
2019-01-04T18:55:09.072Z,60.23
2019-01-04T18:57:48.675Z,64.95
2019-01-04T19:00:28.748Z,64.87
2019-01-04T19:03:08.918Z,65.65
2019-01-04T19:05:48.868Z,64.45
2019-01-04T19:08:29.663Z,64.32
2019-01-04T19:11:11.334Z,61.55
2019-01-04T19:13:51.614Z,63.20
2019-01-04T19:16:31.608Z,59.80
2019-01-04T19:19:11.953Z,66.57
2019-01-04T19:21:52.150Z,66.80
2019-01-04T19:24:32.080Z,59.60
2019-01-04T19:27:13.388Z,64.62
2019-01-04T19:29:53.293Z,58.85
2019-01-04T19:32:33.321Z,55.52
2019-01-04T19:35:13.311Z,56.68
2019-01-04T19:37:53.569Z,59.03
2019-01-04T19:40:33.444Z,60.65
2019-01-04T19:43:13.593Z,57.78
2019-01-04T19:45:53.449Z,57.20
2019-01-04T19:48:33.404Z,67.87
2019-01-04T19:51:14.040Z,59.48
2019-01-04T19:53:53.965Z,60.67
2019-01-04T19:56:34.064Z,56.23
2019-01-04T19:59:14.217Z,57.80
2019-01-04T20:01:54.614Z,57.50
2019-01-04T20:04:34.436Z,56.80
2019-01-04T20:07:33.868Z,72.42
2019-01-04T20:10:33.109Z,67.03
2019-01-04T20:13:59.399Z,55.83
2019-01-04T20:17:02.223Z,61.98
2019-01-04T20:20:07.729Z,56.18
2019-01-04T20:23:06.983Z,56.92
2019-01-04T20:26:07.348Z,59.85
2019-01-04T20:29:10.538Z,65.17
2019-01-04T20:32:10.079Z,61.30
2019-01-04T20:35:15.960Z,64.12
2019-01-04T20:38:18.036Z,67.78
2019-01-04T20:41:12.319Z,63.92
2019-01-04T20:44:06.807Z,57.05
2019-01-04T20:46:53.823Z,55.58
2019-01-04T20:50:00.267Z,60.88
2019-01-04T20:52:51.005Z,56.20
2019-01-04T20:55:50.705Z,54.18
2019-01-04T20:58:46.849Z,54.70
2019-01-04T21:01:39.947Z,56.25
2019-01-04T21:04:39.702Z,52.67
2019-01-04T21:07:39.802Z,49.58
2019-01-04T21:10:39.007Z,53.90
2019-01-04T21:13:38.232Z,55.60
2019-01-04T21:16:37.521Z,64.15
2019-01-04T21:19:35.740Z,48.10
2019-01-04T21:22:35.128Z,53.58
2019-01-04T21:25:34.343Z,46.33
2019-01-04T21:28:33.575Z,50.28
2019-01-04T21:31:36.077Z,42.43
2019-01-04T21:34:38.964Z,46.60
2019-01-04T21:37:41.589Z,53.98
2019-01-04T21:40:41.028Z,55.12
2019-01-04T21:43:41.392Z,50.33
2019-01-04T21:46:41.664Z,46.00
2019-01-04T21:49:44.573Z,46.80
2019-01-04T21:52:43.800Z,42.67
2019-01-04T21:55:43.860Z,40.85
2019-01-04T21:58:43.031Z,43.28
2019-01-04T22:01:43.101Z,41.68
2019-01-04T22:04:42.251Z,44.73
2019-01-04T22:07:40.941Z,39.55
2019-01-04T22:10:40.736Z,48.10
2019-01-04T22:13:45.785Z,42.35
2019-01-04T22:16:45.351Z,42.43
2019-01-04T22:19:44.822Z,45.35
2019-01-04T22:22:44.640Z,47.67
2019-01-04T22:25:44.693Z,44.33
2019-01-04T22:28:44.143Z,44.13
2019-01-04T22:31:43.578Z,53.42
2019-01-04T22:34:47.177Z,43.90
2019-01-04T22:37:47.169Z,45.58
2019-01-04T22:40:47.231Z,53.00
2019-01-04T22:43:49.633Z,52.27
2019-01-04T22:46:49.773Z,48.40
2019-01-04T22:49:49.690Z,53.70
2019-01-04T22:52:49.798Z,57.90
2019-01-04T22:55:49.005Z,60.23
2019-01-04T22:58:55.408Z,53.58
2019-01-04T23:02:01.953Z,48.15
2019-01-04T23:05:01.921Z,58.87
2019-01-04T23:07:54.672Z,57.40
2019-01-04T23:10:54.219Z,47.95
2019-01-04T23:13:53.845Z,58.80
2019-01-04T23:16:53.583Z,56.45
2019-01-04T23:19:52.732Z,50.75
2019-01-04T23:22:55.141Z,57.45
2019-01-04T23:25:54.680Z,51.20
2019-01-04T23:28:53.786Z,60.67
2019-01-04T23:31:53.120Z,52.03
2019-01-04T23:34:52.296Z,58.23
2019-01-04T23:37:54.568Z,55.78
2019-01-04T23:40:54.567Z,59.20
2019-01-04T23:43:53.883Z,52.90
2019-01-04T23:46:53.003Z,48.83
2019-01-04T23:49:52.557Z,52.83
2019-01-04T23:52:41.286Z,51.63
2019-01-04T23:55:48.033Z,44.27
2019-01-04T23:58:47.540Z,47.40
